sensor_id;sensor_type;location;lat;lon;timestamp;P1;durP1;ratioP1;P2;durP2;ratioP2
10120;SDS011;5100;45.176;5.714;2023-07-20T00:01:28;2.05;;;1.85;;
10120;SDS011;5100;45.176;5.714;2023-07-20T00:03:55;2.67;;;1.90;;
10120;SDS011;5100;45.176;5.714;2023-07-20T00:06:21;2.70;;;1.87;;
10120;SDS011;5100;45.176;5.714;2023-07-20T00:08:48;3.05;;;2.03;;
10120;SDS011;5100;45.176;5.714;2023-07-20T00:11:14;2.22;;;2.05;;
10120;SDS011;5100;45.176;5.714;2023-07-20T00:13:53;4.78;;;2.40;;
10120;SDS011;5100;45.176;5.714;2023-07-20T00:16:19;3.42;;;2.05;;
10120;SDS011;5100;45.176;5.714;2023-07-20T00:18:45;2.65;;;1.95;;
10120;SDS011;5100;45.176;5.714;2023-07-20T00:21:11;1.95;;;1.83;;
10120;SDS011;5100;45.176;5.714;2023-07-20T00:23:38;2.08;;;1.90;;
10120;SDS011;5100;45.176;5.714;2023-07-20T00:26:03;4.18;;;1.80;;
10120;SDS011;5100;45.176;5.714;2023-07-20T00:28:29;1.98;;;1.77;;
10120;SDS011;5100;45.176;5.714;2023-07-20T00:30:56;3.65;;;1.80;;
10120;SDS011;5100;45.176;5.714;2023-07-20T00:33:24;6.07;;;2.00;;
10120;SDS011;5100;45.176;5.714;2023-07-20T00:35:51;2.65;;;2.17;;
10120;SDS011;5100;45.176;5.714;2023-07-20T00:38:18;1.60;;;1.50;;
10120;SDS011;5100;45.176;5.714;2023-07-20T00:40:44;2.58;;;1.65;;
10120;SDS011;5100;45.176;5.714;2023-07-20T00:43:10;3.33;;;1.92;;
10120;SDS011;5100;45.176;5.714;2023-07-20T00:45:37;3.50;;;2.15;;
10120;SDS011;5100;45.176;5.714;2023-07-20T00:48:04;2.28;;;1.83;;
10120;SDS011;5100;45.176;5.714;2023-07-20T00:50:31;3.15;;;2.05;;
10120;SDS011;5100;45.176;5.714;2023-07-20T00:52:59;3.00;;;2.17;;
10120;SDS011;5100;45.176;5.714;2023-07-20T00:55:25;2.30;;;1.77;;
10120;SDS011;5100;45.176;5.714;2023-07-20T00:57:52;1.95;;;1.73;;
10120;SDS011;5100;45.176;5.714;2023-07-20T01:00:18;2.33;;;2.00;;
10120;SDS011;5100;45.176;5.714;2023-07-20T01:02:45;3.60;;;1.87;;
10120;SDS011;5100;45.176;5.714;2023-07-20T01:05:11;2.58;;;2.12;;
10120;SDS011;5100;45.176;5.714;2023-07-20T01:10:36;2.75;;;1.95;;
10120;SDS011;5100;45.176;5.714;2023-07-20T01:13:07;2.92;;;2.10;;
10120;SDS011;5100;45.176;5.714;2023-07-20T01:15:37;2.75;;;1.90;;
10120;SDS011;5100;45.176;5.714;2023-07-20T01:18:03;3.35;;;1.95;;
10120;SDS011;5100;45.176;5.714;2023-07-20T01:20:30;2.15;;;1.92;;
10120;SDS011;5100;45.176;5.714;2023-07-20T01:31:32;1.95;;;1.85;;
10120;SDS011;5100;45.176;5.714;2023-07-20T01:34:00;1.90;;;1.80;;
10120;SDS011;5100;45.176;5.714;2023-07-20T01:36:30;2.20;;;2.00;;
10120;SDS011;5100;45.176;5.714;2023-07-20T01:39:00;4.28;;;1.87;;
10120;SDS011;5100;45.176;5.714;2023-07-20T01:41:27;2.75;;;2.00;;
10120;SDS011;5100;45.176;5.714;2023-07-20T01:43:57;4.05;;;1.98;;
10120;SDS011;5100;45.176;5.714;2023-07-20T01:46:24;3.00;;;2.00;;
10120;SDS011;5100;45.176;5.714;2023-07-20T01:48:50;3.08;;;2.20;;
10120;SDS011;5100;45.176;5.714;2023-07-20T01:51:16;3.95;;;2.30;;
10120;SDS011;5100;45.176;5.714;2023-07-20T01:53:43;2.33;;;2.00;;
10120;SDS011;5100;45.176;5.714;2023-07-20T01:56:09;2.62;;;2.00;;
10120;SDS011;5100;45.176;5.714;2023-07-20T01:58:37;3.10;;;1.98;;
10120;SDS011;5100;45.176;5.714;2023-07-20T02:01:04;2.47;;;1.98;;
10120;SDS011;5100;45.176;5.714;2023-07-20T02:03:31;4.78;;;2.08;;
10120;SDS011;5100;45.176;5.714;2023-07-20T02:05:57;3.20;;;1.90;;
10120;SDS011;5100;45.176;5.714;2023-07-20T02:08:24;2.87;;;2.17;;
10120;SDS011;5100;45.176;5.714;2023-07-20T02:10:51;2.75;;;1.90;;
10120;SDS011;5100;45.176;5.714;2023-07-20T02:13:17;2.37;;;2.00;;
10120;SDS011;5100;45.176;5.714;2023-07-20T02:15:43;2.08;;;1.90;;
10120;SDS011;5100;45.176;5.714;2023-07-20T02:18:10;2.37;;;2.17;;
10120;SDS011;5100;45.176;5.714;2023-07-20T02:20:36;2.22;;;1.92;;
10120;SDS011;5100;45.176;5.714;2023-07-20T02:23:02;2.65;;;2.10;;
10120;SDS011;5100;45.176;5.714;2023-07-20T02:25:28;2.25;;;1.85;;
10120;SDS011;5100;45.176;5.714;2023-07-20T02:27:55;4.25;;;2.37;;
10120;SDS011;5100;45.176;5.714;2023-07-20T02:30:22;3.08;;;2.15;;
10120;SDS011;5100;45.176;5.714;2023-07-20T02:32:48;1.95;;;1.77;;
10120;SDS011;5100;45.176;5.714;2023-07-20T02:35:15;3.08;;;2.10;;
10120;SDS011;5100;45.176;5.714;2023-07-20T02:37:41;3.35;;;1.90;;
10120;SDS011;5100;45.176;5.714;2023-07-20T02:40:07;7.10;;;2.45;;
10120;SDS011;5100;45.176;5.714;2023-07-20T02:42:35;2.45;;;1.98;;
10120;SDS011;5100;45.176;5.714;2023-07-20T02:45:02;2.37;;;2.10;;
10120;SDS011;5100;45.176;5.714;2023-07-20T02:47:29;2.08;;;1.80;;
10120;SDS011;5100;45.176;5.714;2023-07-20T02:49:56;2.97;;;1.92;;
10120;SDS011;5100;45.176;5.714;2023-07-20T02:52:22;4.30;;;2.17;;
10120;SDS011;5100;45.176;5.714;2023-07-20T02:54:49;4.80;;;1.98;;
10120;SDS011;5100;45.176;5.714;2023-07-20T02:57:15;2.20;;;2.00;;
10120;SDS011;5100;45.176;5.714;2023-07-20T02:59:41;3.25;;;2.10;;
10120;SDS011;5100;45.176;5.714;2023-07-20T03:02:07;2.42;;;2.22;;
10120;SDS011;5100;45.176;5.714;2023-07-20T03:04:35;2.62;;;2.20;;
10120;SDS011;5100;45.176;5.714;2023-07-20T03:07:04;2.85;;;1.83;;
10120;SDS011;5100;45.176;5.714;2023-07-20T03:09:32;2.35;;;1.92;;
10120;SDS011;5100;45.176;5.714;2023-07-20T03:11:58;2.62;;;1.85;;
10120;SDS011;5100;45.176;5.714;2023-07-20T03:14:25;2.85;;;2.12;;
10120;SDS011;5100;45.176;5.714;2023-07-20T03:16:51;2.60;;;2.03;;
10120;SDS011;5100;45.176;5.714;2023-07-20T03:19:18;8.65;;;2.10;;
10120;SDS011;5100;45.176;5.714;2023-07-20T03:21:44;2.50;;;2.30;;
10120;SDS011;5100;45.176;5.714;2023-07-20T03:24:10;1.85;;;1.70;;
10120;SDS011;5100;45.176;5.714;2023-07-20T03:26:36;7.55;;;2.42;;
10120;SDS011;5100;45.176;5.714;2023-07-20T03:29:03;3.83;;;2.00;;
10120;SDS011;5100;45.176;5.714;2023-07-20T03:31:31;5.18;;;1.95;;
10120;SDS011;5100;45.176;5.714;2023-07-20T03:33:58;2.83;;;1.87;;
10120;SDS011;5100;45.176;5.714;2023-07-20T03:36:24;2.65;;;1.87;;
10120;SDS011;5100;45.176;5.714;2023-07-20T03:38:50;2.42;;;2.15;;
10120;SDS011;5100;45.176;5.714;2023-07-20T03:41:17;6.93;;;2.08;;
10120;SDS011;5100;45.176;5.714;2023-07-20T03:43:45;5.55;;;2.00;;
10120;SDS011;5100;45.176;5.714;2023-07-20T03:46:11;2.47;;;2.05;;
10120;SDS011;5100;45.176;5.714;2023-07-20T03:48:37;1.98;;;1.70;;
10120;SDS011;5100;45.176;5.714;2023-07-20T03:51:04;2.05;;;1.60;;
10120;SDS011;5100;45.176;5.714;2023-07-20T03:53:29;2.15;;;1.90;;
10120;SDS011;5100;45.176;5.714;2023-07-20T03:55:56;2.00;;;1.85;;
10120;SDS011;5100;45.176;5.714;2023-07-20T03:58:22;2.20;;;2.00;;
10120;SDS011;5100;45.176;5.714;2023-07-20T04:00:49;2.03;;;1.83;;
10120;SDS011;5100;45.176;5.714;2023-07-20T04:03:17;2.58;;;2.03;;
10120;SDS011;5100;45.176;5.714;2023-07-20T04:05:44;3.03;;;1.75;;
10120;SDS011;5100;45.176;5.714;2023-07-20T04:08:10;2.47;;;2.08;;
10120;SDS011;5100;45.176;5.714;2023-07-20T04:10:37;4.20;;;1.75;;
10120;SDS011;5100;45.176;5.714;2023-07-20T04:13:04;2.17;;;1.98;;
10120;SDS011;5100;45.176;5.714;2023-07-20T04:15:30;1.80;;;1.70;;
10120;SDS011;5100;45.176;5.714;2023-07-20T04:17:57;3.67;;;2.30;;
10120;SDS011;5100;45.176;5.714;2023-07-20T04:20:23;3.03;;;1.92;;
10120;SDS011;5100;45.176;5.714;2023-07-20T04:22:49;2.70;;;1.95;;
10120;SDS011;5100;45.176;5.714;2023-07-20T04:25:17;4.68;;;1.90;;
10120;SDS011;5100;45.176;5.714;2023-07-20T04:27:43;1.60;;;1.50;;
10120;SDS011;5100;45.176;5.714;2023-07-20T04:30:10;2.10;;;1.77;;
10120;SDS011;5100;45.176;5.714;2023-07-20T04:32:37;2.37;;;1.87;;
10120;SDS011;5100;45.176;5.714;2023-07-20T04:35:10;3.25;;;1.83;;
10120;SDS011;5100;45.176;5.714;2023-07-20T04:37:36;2.20;;;1.90;;
10120;SDS011;5100;45.176;5.714;2023-07-20T04:40:03;3.95;;;2.17;;
10120;SDS011;5100;45.176;5.714;2023-07-20T04:42:29;3.55;;;2.22;;
10120;SDS011;5100;45.176;5.714;2023-07-20T04:44:55;1.70;;;1.60;;
10120;SDS011;5100;45.176;5.714;2023-07-20T04:47:23;1.90;;;1.80;;
10120;SDS011;5100;45.176;5.714;2023-07-20T04:49:49;2.87;;;1.90;;
10120;SDS011;5100;45.176;5.714;2023-07-20T04:52:15;3.33;;;2.03;;
10120;SDS011;5100;45.176;5.714;2023-07-20T04:54:41;2.03;;;1.90;;
10120;SDS011;5100;45.176;5.714;2023-07-20T04:57:10;2.33;;;1.70;;
10120;SDS011;5100;45.176;5.714;2023-07-20T04:59:38;2.22;;;2.03;;
10120;SDS011;5100;45.176;5.714;2023-07-20T05:02:04;2.10;;;1.90;;
10120;SDS011;5100;45.176;5.714;2023-07-20T05:04:30;2.75;;;1.85;;
10120;SDS011;5100;45.176;5.714;2023-07-20T05:06:56;2.20;;;2.00;;
10120;SDS011;5100;45.176;5.714;2023-07-20T05:09:23;1.90;;;1.70;;
10120;SDS011;5100;45.176;5.714;2023-07-20T05:11:49;4.47;;;2.10;;
10120;SDS011;5100;45.176;5.714;2023-07-20T05:14:16;1.90;;;1.80;;
10120;SDS011;5100;45.176;5.714;2023-07-20T05:16:43;2.97;;;2.00;;
10120;SDS011;5100;45.176;5.714;2023-07-20T05:19:09;3.67;;;2.05;;
10120;SDS011;5100;45.176;5.714;2023-07-20T05:21:35;3.03;;;2.12;;
10120;SDS011;5100;45.176;5.714;2023-07-20T05:24:01;4.57;;;1.70;;
10120;SDS011;5100;45.176;5.714;2023-07-20T05:26:27;2.10;;;1.90;;
10120;SDS011;5100;45.176;5.714;2023-07-20T05:28:53;2.30;;;2.05;;
10120;SDS011;5100;45.176;5.714;2023-07-20T05:31:20;2.65;;;1.90;;
10120;SDS011;5100;45.176;5.714;2023-07-20T05:33:46;2.83;;;1.90;;
10120;SDS011;5100;45.176;5.714;2023-07-20T05:36:12;2.45;;;2.22;;
10120;SDS011;5100;45.176;5.714;2023-07-20T05:38:38;4.72;;;2.22;;
10120;SDS011;5100;45.176;5.714;2023-07-20T05:41:04;2.45;;;1.85;;
10120;SDS011;5100;45.176;5.714;2023-07-20T05:43:30;2.35;;;1.92;;
10120;SDS011;5100;45.176;5.714;2023-07-20T05:45:57;5.10;;;1.77;;
10120;SDS011;5100;45.176;5.714;2023-07-20T05:48:23;3.78;;;2.53;;
10120;SDS011;5100;45.176;5.714;2023-07-20T05:50:49;3.20;;;2.15;;
10120;SDS011;5100;45.176;5.714;2023-07-20T05:53:16;1.98;;;1.85;;
10120;SDS011;5100;45.176;5.714;2023-07-20T05:55:42;3.75;;;1.70;;
10120;SDS011;5100;45.176;5.714;2023-07-20T05:58:08;4.93;;;2.10;;
10120;SDS011;5100;45.176;5.714;2023-07-20T06:00:34;4.37;;;2.12;;
10120;SDS011;5100;45.176;5.714;2023-07-20T06:03:00;4.03;;;2.00;;
10120;SDS011;5100;45.176;5.714;2023-07-20T06:05:26;2.00;;;1.80;;
10120;SDS011;5100;45.176;5.714;2023-07-20T06:07:52;6.03;;;2.42;;
10120;SDS011;5100;45.176;5.714;2023-07-20T06:10:20;2.60;;;2.05;;
10120;SDS011;5100;45.176;5.714;2023-07-20T06:12:46;9.65;;;2.17;;
10120;SDS011;5100;45.176;5.714;2023-07-20T06:17:58;5.70;;;1.98;;
10120;SDS011;5100;45.176;5.714;2023-07-20T06:20:24;8.38;;;2.62;;
10120;SDS011;5100;45.176;5.714;2023-07-20T06:22:50;2.78;;;2.20;;
10120;SDS011;5100;45.176;5.714;2023-07-20T06:25:16;4.47;;;2.28;;
10120;SDS011;5100;45.176;5.714;2023-07-20T06:27:43;2.83;;;1.90;;
10120;SDS011;5100;45.176;5.714;2023-07-20T06:30:09;2.78;;;2.00;;
10120;SDS011;5100;45.176;5.714;2023-07-20T06:32:36;3.97;;;1.98;;
10120;SDS011;5100;45.176;5.714;2023-07-20T06:35:02;4.22;;;2.05;;
10120;SDS011;5100;45.176;5.714;2023-07-20T06:37:28;5.03;;;2.35;;
10120;SDS011;5100;45.176;5.714;2023-07-20T06:39:54;4.70;;;2.60;;
10120;SDS011;5100;45.176;5.714;2023-07-20T06:42:20;2.78;;;2.08;;
10120;SDS011;5100;45.176;5.714;2023-07-20T06:44:46;2.30;;;1.75;;
10120;SDS011;5100;45.176;5.714;2023-07-20T06:47:12;4.62;;;1.87;;
10120;SDS011;5100;45.176;5.714;2023-07-20T06:49:38;2.10;;;1.90;;
10120;SDS011;5100;45.176;5.714;2023-07-20T06:52:04;4.32;;;2.20;;
10120;SDS011;5100;45.176;5.714;2023-07-20T06:54:31;2.47;;;1.80;;
10120;SDS011;5100;45.176;5.714;2023-07-20T06:56:57;2.42;;;2.20;;
10120;SDS011;5100;45.176;5.714;2023-07-20T06:59:23;5.90;;;2.00;;
10120;SDS011;5100;45.176;5.714;2023-07-20T07:01:50;2.30;;;1.67;;
10120;SDS011;5100;45.176;5.714;2023-07-20T07:04:15;3.72;;;1.80;;
10120;SDS011;5100;45.176;5.714;2023-07-20T07:06:41;4.35;;;2.30;;
10120;SDS011;5100;45.176;5.714;2023-07-20T07:09:08;3.00;;;2.30;;
10120;SDS011;5100;45.176;5.714;2023-07-20T07:11:34;3.75;;;1.95;;
10120;SDS011;5100;45.176;5.714;2023-07-20T07:14:00;4.65;;;2.30;;
10120;SDS011;5100;45.176;5.714;2023-07-20T07:16:26;2.85;;;2.22;;
10120;SDS011;5100;45.176;5.714;2023-07-20T07:18:52;4.85;;;2.40;;
10120;SDS011;5100;45.176;5.714;2023-07-20T07:21:18;2.92;;;2.30;;
10120;SDS011;5100;45.176;5.714;2023-07-20T07:23:45;2.87;;;2.03;;
10120;SDS011;5100;45.176;5.714;2023-07-20T07:26:11;3.17;;;2.20;;
10120;SDS011;5100;45.176;5.714;2023-07-20T07:28:37;2.70;;;2.28;;
10120;SDS011;5100;45.176;5.714;2023-07-20T07:31:06;4.30;;;2.28;;
10120;SDS011;5100;45.176;5.714;2023-07-20T07:33:33;2.03;;;1.77;;
10120;SDS011;5100;45.176;5.714;2023-07-20T07:35:59;8.25;;;1.77;;
10120;SDS011;5100;45.176;5.714;2023-07-20T07:38:26;2.60;;;2.00;;
10120;SDS011;5100;45.176;5.714;2023-07-20T07:40:51;1.92;;;1.83;;
10120;SDS011;5100;45.176;5.714;2023-07-20T07:43:17;1.83;;;1.73;;
10120;SDS011;5100;45.176;5.714;2023-07-20T07:45:44;3.25;;;2.17;;
10120;SDS011;5100;45.176;5.714;2023-07-20T07:48:10;4.53;;;2.08;;
10120;SDS011;5100;45.176;5.714;2023-07-20T07:50:39;2.62;;;2.30;;
10120;SDS011;5100;45.176;5.714;2023-07-20T07:53:06;2.33;;;1.80;;
10120;SDS011;5100;45.176;5.714;2023-07-20T07:55:34;2.00;;;1.80;;
10120;SDS011;5100;45.176;5.714;2023-07-20T07:58:00;1.60;;;1.50;;
10120;SDS011;5100;45.176;5.714;2023-07-20T08:00:26;6.37;;;1.98;;
10120;SDS011;5100;45.176;5.714;2023-07-20T08:02:52;4.68;;;1.77;;
10120;SDS011;5100;45.176;5.714;2023-07-20T08:05:18;1.52;;;1.42;;
10120;SDS011;5100;45.176;5.714;2023-07-20T08:07:44;1.80;;;1.52;;
10120;SDS011;5100;45.176;5.714;2023-07-20T08:10:10;1.73;;;1.60;;
10120;SDS011;5100;45.176;5.714;2023-07-20T08:12:37;1.75;;;1.65;;
10120;SDS011;5100;45.176;5.714;2023-07-20T08:15:03;1.92;;;1.73;;
10120;SDS011;5100;45.176;5.714;2023-07-20T08:17:30;4.53;;;1.92;;
10120;SDS011;5100;45.176;5.714;2023-07-20T08:19:56;2.47;;;1.77;;
10120;SDS011;5100;45.176;5.714;2023-07-20T08:22:22;1.98;;;1.60;;
10120;SDS011;5100;45.176;5.714;2023-07-20T08:24:47;1.50;;;1.30;;
10120;SDS011;5100;45.176;5.714;2023-07-20T08:27:14;2.60;;;1.50;;
10120;SDS011;5100;45.176;5.714;2023-07-20T08:29:40;4.85;;;2.00;;
10120;SDS011;5100;45.176;5.714;2023-07-20T08:32:06;1.62;;;1.52;;
10120;SDS011;5100;45.176;5.714;2023-07-20T08:34:32;3.65;;;1.50;;
10120;SDS011;5100;45.176;5.714;2023-07-20T08:36:58;1.67;;;1.58;;
10120;SDS011;5100;45.176;5.714;2023-07-20T08:39:24;2.70;;;1.67;;
10120;SDS011;5100;45.176;5.714;2023-07-20T08:41:51;1.98;;;1.52;;
10120;SDS011;5100;45.176;5.714;2023-07-20T08:44:17;2.58;;;1.83;;
10120;SDS011;5100;45.176;5.714;2023-07-20T08:46:43;2.58;;;1.55;;
10120;SDS011;5100;45.176;5.714;2023-07-20T08:49:10;2.20;;;1.52;;
10120;SDS011;5100;45.176;5.714;2023-07-20T08:51:37;2.08;;;1.40;;
10120;SDS011;5100;45.176;5.714;2023-07-20T08:54:04;2.25;;;1.73;;
10120;SDS011;5100;45.176;5.714;2023-07-20T08:56:32;1.75;;;1.52;;
10120;SDS011;5100;45.176;5.714;2023-07-20T08:59:00;1.92;;;1.37;;
10120;SDS011;5100;45.176;5.714;2023-07-20T09:01:27;3.47;;;1.52;;
10120;SDS011;5100;45.176;5.714;2023-07-20T09:03:55;2.25;;;1.20;;
10120;SDS011;5100;45.176;5.714;2023-07-20T09:06:21;2.03;;;1.50;;
10120;SDS011;5100;45.176;5.714;2023-07-20T09:08:47;1.42;;;1.25;;
10120;SDS011;5100;45.176;5.714;2023-07-20T09:11:14;3.95;;;2.17;;
10120;SDS011;5100;45.176;5.714;2023-07-20T09:13:40;2.92;;;1.52;;
10120;SDS011;5100;45.176;5.714;2023-07-20T09:16:06;3.30;;;2.12;;
10120;SDS011;5100;45.176;5.714;2023-07-20T09:18:32;1.67;;;1.58;;
10120;SDS011;5100;45.176;5.714;2023-07-20T09:21:03;2.17;;;1.85;;
10120;SDS011;5100;45.176;5.714;2023-07-20T09:23:37;2.75;;;1.50;;
10120;SDS011;5100;45.176;5.714;2023-07-20T09:26:14;2.60;;;1.80;;
10120;SDS011;5100;45.176;5.714;2023-07-20T09:28:41;3.35;;;1.80;;
10120;SDS011;5100;45.176;5.714;2023-07-20T09:31:16;2.83;;;1.48;;
10120;SDS011;5100;45.176;5.714;2023-07-20T09:33:46;2.30;;;1.85;;
10120;SDS011;5100;45.176;5.714;2023-07-20T09:36:12;2.35;;;1.80;;
10120;SDS011;5100;45.176;5.714;2023-07-20T09:38:42;2.25;;;1.35;;
10120;SDS011;5100;45.176;5.714;2023-07-20T09:41:12;1.60;;;1.50;;
10120;SDS011;5100;45.176;5.714;2023-07-20T09:43:40;5.72;;;1.98;;
10120;SDS011;5100;45.176;5.714;2023-07-20T09:46:07;1.75;;;1.65;;
10120;SDS011;5100;45.176;5.714;2023-07-20T09:48:33;2.30;;;1.60;;
10120;SDS011;5100;45.176;5.714;2023-07-20T09:50:59;7.10;;;1.55;;
10120;SDS011;5100;45.176;5.714;2023-07-20T09:53:26;1.65;;;1.52;;
10120;SDS011;5100;45.176;5.714;2023-07-20T09:55:53;1.60;;;1.50;;
10120;SDS011;5100;45.176;5.714;2023-07-20T09:58:21;2.35;;;1.40;;
10120;SDS011;5100;45.176;5.714;2023-07-20T10:00:47;1.50;;;1.40;;
10120;SDS011;5100;45.176;5.714;2023-07-20T10:03:29;2.20;;;1.45;;
10120;SDS011;5100;45.176;5.714;2023-07-20T10:06:00;2.87;;;1.50;;
10120;SDS011;5100;45.176;5.714;2023-07-20T10:08:32;2.22;;;1.50;;
10120;SDS011;5100;45.176;5.714;2023-07-20T10:11:00;1.60;;;1.50;;
10120;SDS011;5100;45.176;5.714;2023-07-20T10:13:28;2.53;;;1.70;;
10120;SDS011;5100;45.176;5.714;2023-07-20T10:15:59;2.15;;;1.50;;
10120;SDS011;5100;45.176;5.714;2023-07-20T10:18:36;1.70;;;1.37;;
10120;SDS011;5100;45.176;5.714;2023-07-20T10:21:07;1.83;;;1.52;;
10120;SDS011;5100;45.176;5.714;2023-07-20T10:23:35;2.05;;;1.40;;
10120;SDS011;5100;45.176;5.714;2023-07-20T10:26:02;1.50;;;1.40;;
10120;SDS011;5100;45.176;5.714;2023-07-20T10:28:28;1.52;;;1.42;;
10120;SDS011;5100;45.176;5.714;2023-07-20T10:30:54;1.50;;;1.40;;
10120;SDS011;5100;45.176;5.714;2023-07-20T10:33:20;1.35;;;1.25;;
10120;SDS011;5100;45.176;5.714;2023-07-20T10:35:54;1.52;;;1.42;;
10120;SDS011;5100;45.176;5.714;2023-07-20T10:38:52;1.50;;;1.40;;
10120;SDS011;5100;45.176;5.714;2023-07-20T10:44:09;2.00;;;1.73;;
10120;SDS011;5100;45.176;5.714;2023-07-20T10:49:06;1.73;;;1.58;;
10120;SDS011;5100;45.176;5.714;2023-07-20T10:51:40;1.50;;;1.40;;
10120;SDS011;5100;45.176;5.714;2023-07-20T10:54:12;4.05;;;1.85;;
10120;SDS011;5100;45.176;5.714;2023-07-20T10:56:55;1.50;;;1.40;;
10120;SDS011;5100;45.176;5.714;2023-07-20T10:59:45;3.20;;;1.65;;
10120;SDS011;5100;45.176;5.714;2023-07-20T11:02:12;1.70;;;1.60;;
10120;SDS011;5100;45.176;5.714;2023-07-20T11:04:39;2.83;;;1.80;;
10120;SDS011;5100;45.176;5.714;2023-07-20T11:07:06;1.75;;;1.55;;
10120;SDS011;5100;45.176;5.714;2023-07-20T11:09:36;4.85;;;1.40;;
10120;SDS011;5100;45.176;5.714;2023-07-20T11:12:19;1.42;;;1.33;;
10120;SDS011;5100;45.176;5.714;2023-07-20T11:14:55;4.97;;;1.60;;
10120;SDS011;5100;45.176;5.714;2023-07-20T11:17:28;1.50;;;1.40;;
10120;SDS011;5100;45.176;5.714;2023-07-20T11:19:56;1.50;;;1.40;;
10120;SDS011;5100;45.176;5.714;2023-07-20T11:22:23;1.87;;;1.77;;
10120;SDS011;5100;45.176;5.714;2023-07-20T11:24:49;2.62;;;1.30;;
10120;SDS011;5100;45.176;5.714;2023-07-20T11:27:16;1.80;;;1.35;;
10120;SDS011;5100;45.176;5.714;2023-07-20T11:29:45;2.25;;;1.37;;
10120;SDS011;5100;45.176;5.714;2023-07-20T11:32:11;2.83;;;1.70;;
10120;SDS011;5100;45.176;5.714;2023-07-20T11:34:37;2.25;;;1.58;;
10120;SDS011;5100;45.176;5.714;2023-07-20T11:37:03;2.00;;;1.42;;
10120;SDS011;5100;45.176;5.714;2023-07-20T11:39:30;1.60;;;1.30;;
10120;SDS011;5100;45.176;5.714;2023-07-20T11:41:57;3.35;;;1.62;;
10120;SDS011;5100;45.176;5.714;2023-07-20T11:44:24;1.65;;;1.55;;
10120;SDS011;5100;45.176;5.714;2023-07-20T11:49:33;2.00;;;1.60;;
10120;SDS011;5100;45.176;5.714;2023-07-20T11:52:00;2.85;;;1.37;;
10120;SDS011;5100;45.176;5.714;2023-07-20T11:54:27;1.45;;;1.35;;
10120;SDS011;5100;45.176;5.714;2023-07-20T11:56:54;7.60;;;1.77;;
10120;SDS011;5100;45.176;5.714;2023-07-20T11:59:21;3.33;;;1.60;;
10120;SDS011;5100;45.176;5.714;2023-07-20T12:01:47;1.92;;;1.60;;
10120;SDS011;5100;45.176;5.714;2023-07-20T12:04:13;1.55;;;1.45;;
10120;SDS011;5100;45.176;5.714;2023-07-20T12:06:39;1.48;;;1.37;;
10120;SDS011;5100;45.176;5.714;2023-07-20T12:09:05;2.20;;;1.98;;
10120;SDS011;5100;45.176;5.714;2023-07-20T12:11:32;4.32;;;1.60;;
10120;SDS011;5100;45.176;5.714;2023-07-20T12:14:03;2.67;;;1.50;;
10120;SDS011;5100;45.176;5.714;2023-07-20T12:16:31;1.65;;;1.33;;
10120;SDS011;5100;45.176;5.714;2023-07-20T12:19:05;1.40;;;1.30;;
10120;SDS011;5100;45.176;5.714;2023-07-20T12:21:36;2.03;;;1.20;;
10120;SDS011;5100;45.176;5.714;2023-07-20T12:24:03;1.73;;;1.45;;
10120;SDS011;5100;45.176;5.714;2023-07-20T12:26:30;2.15;;;1.40;;
10120;SDS011;5100;45.176;5.714;2023-07-20T12:28:57;2.67;;;1.73;;
10120;SDS011;5100;45.176;5.714;2023-07-20T12:31:24;2.15;;;1.80;;
10120;SDS011;5100;45.176;5.714;2023-07-20T12:33:51;2.42;;;1.50;;
10120;SDS011;5100;45.176;5.714;2023-07-20T12:36:18;1.50;;;1.40;;
10120;SDS011;5100;45.176;5.714;2023-07-20T12:38:44;2.72;;;1.70;;
10120;SDS011;5100;45.176;5.714;2023-07-20T12:41:11;2.08;;;1.73;;
10120;SDS011;5100;45.176;5.714;2023-07-20T12:43:39;1.60;;;1.50;;
10120;SDS011;5100;45.176;5.714;2023-07-20T12:46:06;2.10;;;1.45;;
10120;SDS011;5100;45.176;5.714;2023-07-20T12:48:33;2.35;;;1.60;;
10120;SDS011;5100;45.176;5.714;2023-07-20T12:50:59;1.55;;;1.45;;
10120;SDS011;5100;45.176;5.714;2023-07-20T12:53:25;4.75;;;1.77;;
10120;SDS011;5100;45.176;5.714;2023-07-20T12:55:51;1.30;;;1.20;;
10120;SDS011;5100;45.176;5.714;2023-07-20T12:58:17;2.00;;;1.80;;
10120;SDS011;5100;45.176;5.714;2023-07-20T13:00:43;2.60;;;1.80;;
10120;SDS011;5100;45.176;5.714;2023-07-20T13:03:09;1.62;;;1.50;;
10120;SDS011;5100;45.176;5.714;2023-07-20T13:05:36;1.40;;;1.30;;
10120;SDS011;5100;45.176;5.714;2023-07-20T13:08:02;2.90;;;1.52;;
10120;SDS011;5100;45.176;5.714;2023-07-20T13:10:28;2.83;;;1.60;;
10120;SDS011;5100;45.176;5.714;2023-07-20T13:12:55;1.60;;;1.30;;
10120;SDS011;5100;45.176;5.714;2023-07-20T13:15:21;1.77;;;1.45;;
10120;SDS011;5100;45.176;5.714;2023-07-20T13:17:49;1.92;;;1.60;;
10120;SDS011;5100;45.176;5.714;2023-07-20T13:20:16;1.50;;;1.40;;
10120;SDS011;5100;45.176;5.714;2023-07-20T13:22:43;3.58;;;1.60;;
10120;SDS011;5100;45.176;5.714;2023-07-20T13:25:10;1.65;;;1.30;;
10120;SDS011;5100;45.176;5.714;2023-07-20T13:27:36;2.97;;;1.65;;
10120;SDS011;5100;45.176;5.714;2023-07-20T13:30:02;2.90;;;1.62;;
10120;SDS011;5100;45.176;5.714;2023-07-20T13:32:32;1.80;;;1.70;;
10120;SDS011;5100;45.176;5.714;2023-07-20T13:34:58;2.08;;;1.50;;
10120;SDS011;5100;45.176;5.714;2023-07-20T13:37:25;1.70;;;1.60;;
10120;SDS011;5100;45.176;5.714;2023-07-20T13:39:52;1.10;;;1.10;;
10120;SDS011;5100;45.176;5.714;2023-07-20T13:42:18;2.05;;;1.50;;
10120;SDS011;5100;45.176;5.714;2023-07-20T13:44:44;1.90;;;1.50;;
10120;SDS011;5100;45.176;5.714;2023-07-20T13:47:11;1.60;;;1.50;;
10120;SDS011;5100;45.176;5.714;2023-07-20T13:49:37;1.80;;;1.70;;
10120;SDS011;5100;45.176;5.714;2023-07-20T13:52:03;2.33;;;1.70;;
10120;SDS011;5100;45.176;5.714;2023-07-20T13:54:30;1.30;;;1.20;;
10120;SDS011;5100;45.176;5.714;2023-07-20T13:56:56;4.12;;;2.10;;
10120;SDS011;5100;45.176;5.714;2023-07-20T13:59:22;1.42;;;1.33;;
10120;SDS011;5100;45.176;5.714;2023-07-20T14:01:48;2.97;;;1.55;;
10120;SDS011;5100;45.176;5.714;2023-07-20T14:04:14;2.72;;;1.42;;
10120;SDS011;5100;45.176;5.714;2023-07-20T14:06:40;1.50;;;1.40;;
10120;SDS011;5100;45.176;5.714;2023-07-20T14:09:06;1.50;;;1.40;;
10120;SDS011;5100;45.176;5.714;2023-07-20T14:11:33;1.70;;;1.60;;
10120;SDS011;5100;45.176;5.714;2023-07-20T14:13:59;1.30;;;1.20;;
10120;SDS011;5100;45.176;5.714;2023-07-20T14:16:25;4.12;;;1.60;;
10120;SDS011;5100;45.176;5.714;2023-07-20T14:18:51;1.75;;;1.65;;
10120;SDS011;5100;45.176;5.714;2023-07-20T14:21:18;1.60;;;1.50;;
10120;SDS011;5100;45.176;5.714;2023-07-20T14:23:46;1.60;;;1.50;;
10120;SDS011;5100;45.176;5.714;2023-07-20T14:26:13;1.95;;;1.20;;
10120;SDS011;5100;45.176;5.714;2023-07-20T14:28:39;1.40;;;1.30;;
10120;SDS011;5100;45.176;5.714;2023-07-20T14:31:06;1.40;;;1.30;;
10120;SDS011;5100;45.176;5.714;2023-07-20T14:33:32;1.35;;;1.25;;
10120;SDS011;5100;45.176;5.714;2023-07-20T14:35:58;1.70;;;1.50;;
10120;SDS011;5100;45.176;5.714;2023-07-20T14:38:24;5.28;;;1.50;;
10120;SDS011;5100;45.176;5.714;2023-07-20T14:40:51;1.58;;;1.48;;
10120;SDS011;5100;45.176;5.714;2023-07-20T14:43:17;2.05;;;1.48;;
10120;SDS011;5100;45.176;5.714;2023-07-20T14:45:43;1.37;;;1.27;;
10120;SDS011;5100;45.176;5.714;2023-07-20T14:48:10;1.20;;;1.15;;
10120;SDS011;5100;45.176;5.714;2023-07-20T14:50:36;1.50;;;1.40;;
10120;SDS011;5100;45.176;5.714;2023-07-20T14:53:02;1.40;;;1.20;;
10120;SDS011;5100;45.176;5.714;2023-07-20T14:55:29;1.50;;;1.40;;
10120;SDS011;5100;45.176;5.714;2023-07-20T14:57:55;2.12;;;1.60;;
10120;SDS011;5100;45.176;5.714;2023-07-20T15:00:21;2.10;;;1.50;;
10120;SDS011;5100;45.176;5.714;2023-07-20T15:02:47;2.90;;;1.85;;
10120;SDS011;5100;45.176;5.714;2023-07-20T15:05:20;1.85;;;1.50;;
10120;SDS011;5100;45.176;5.714;2023-07-20T15:07:47;1.60;;;1.37;;
10120;SDS011;5100;45.176;5.714;2023-07-20T15:10:14;1.58;;;1.37;;
10120;SDS011;5100;45.176;5.714;2023-07-20T15:12:40;1.83;;;1.40;;
10120;SDS011;5100;45.176;5.714;2023-07-20T15:15:14;1.50;;;1.40;;
10120;SDS011;5100;45.176;5.714;2023-07-20T15:17:41;1.90;;;1.42;;
10120;SDS011;5100;45.176;5.714;2023-07-20T15:20:10;1.67;;;1.52;;
10120;SDS011;5100;45.176;5.714;2023-07-20T15:22:37;1.40;;;1.30;;